createdAt,value
2022-09-28T00:02:01.571Z,44.30
2022-09-28T00:04:50.504Z,47.47
2022-09-28T00:07:32.768Z,41.85
2022-09-28T00:10:21.504Z,45.72
2022-09-28T00:13:10.546Z,38.40
2022-09-28T00:16:17.103Z,42.08
2022-09-28T00:19:00.503Z,47.95
2022-09-28T00:21:50.417Z,45.38
2022-09-28T00:24:39.405Z,47.72
2022-09-28T00:27:28.394Z,57.67
2022-09-28T00:30:18.518Z,51.53
2022-09-28T00:33:00.708Z,56.15
2022-09-28T00:35:50.526Z,49.00
2022-09-28T00:38:41.670Z,54.33
2022-09-28T00:41:24.390Z,55.60
2022-09-28T00:44:33.435Z,58.25
2022-09-28T00:47:48.484Z,54.15
2022-09-28T00:50:44.415Z,59.47
2022-09-28T00:53:38.407Z,62.17
2022-09-28T00:56:25.356Z,59.97
2022-09-28T00:59:16.660Z,63.00
2022-09-28T01:01:59.163Z,59.20
2022-09-28T01:04:48.413Z,60.83
2022-09-28T01:07:39.806Z,56.15
2022-09-28T01:10:23.505Z,55.30
2022-09-28T01:13:05.893Z,57.22
2022-09-28T01:16:21.582Z,58.10
2022-09-28T01:19:26.333Z,53.20
2022-09-28T01:22:43.494Z,54.58
2022-09-28T01:25:58.788Z,56.45
2022-09-28T01:28:41.550Z,54.55
2022-09-28T01:31:31.742Z,62.40
2022-09-28T01:34:33.486Z,65.00
2022-09-28T01:37:27.481Z,61.33
2022-09-28T01:40:12.770Z,60.85
2022-09-28T01:43:12.492Z,60.47
2022-09-28T01:46:07.798Z,61.58
2022-09-28T01:49:01.503Z,63.05
2022-09-28T01:51:59.496Z,60.65
2022-09-28T01:55:14.784Z,51.13
2022-09-28T01:58:19.839Z,63.33
2022-09-28T02:01:16.085Z,57.35
2022-09-28T02:04:22.473Z,64.40
2022-09-28T02:07:21.824Z,60.38
2022-09-28T02:10:09.496Z,64.07
2022-09-28T02:13:13.762Z,55.10
2022-09-28T02:16:05.551Z,51.30
2022-09-28T02:18:48.513Z,67.55
2022-09-28T02:21:40.487Z,52.33
2022-09-28T02:24:33.555Z,50.72
2022-09-28T02:27:32.494Z,52.70
2022-09-28T02:30:21.772Z,59.20
2022-09-28T02:33:13.489Z,51.97
2022-09-28T02:35:59.104Z,48.47
2022-09-28T02:38:52.482Z,53.90
2022-09-28T02:41:54.340Z,57.05
2022-09-28T02:45:18.470Z,52.78
2022-09-28T02:48:55.763Z,60.10
2022-09-28T02:52:02.933Z,55.95
2022-09-28T02:55:15.477Z,49.47
2022-09-28T02:58:04.620Z,47.58
2022-09-28T03:00:57.524Z,53.15
2022-09-28T03:03:56.779Z,58.63
2022-09-28T03:07:14.496Z,50.42
2022-09-28T03:10:17.926Z,46.90
2022-09-28T03:13:08.486Z,49.20
2022-09-28T03:15:57.464Z,55.78
2022-09-28T03:18:47.487Z,57.10
2022-09-28T03:21:36.496Z,56.50
2022-09-28T03:24:25.475Z,44.58
2022-09-28T03:27:07.755Z,62.65
2022-09-28T03:29:56.471Z,48.83
2022-09-28T03:32:38.992Z,51.35
2022-09-28T03:35:28.479Z,43.67
2022-09-28T03:38:10.689Z,60.75
2022-09-28T03:41:11.479Z,41.55
2022-09-28T03:44:00.366Z,38.85
2022-09-28T03:46:42.906Z,45.17
2022-09-28T03:49:31.377Z,47.33
2022-09-28T03:52:13.782Z,44.42
2022-09-28T03:55:02.470Z,41.85
2022-09-28T03:57:51.474Z,43.33
2022-09-28T04:00:33.888Z,45.05
2022-09-28T04:03:22.487Z,45.95
2022-09-28T04:06:04.738Z,56.03
2022-09-28T04:08:53.476Z,52.60
2022-09-28T04:12:02.290Z,55.08
2022-09-28T04:14:45.479Z,57.35
2022-09-28T04:17:37.756Z,57.80
2022-09-28T04:20:35.390Z,39.90
2022-09-28T04:23:21.525Z,49.20
2022-09-28T04:26:10.504Z,43.55
2022-09-28T04:29:18.345Z,42.80
2022-09-28T04:32:05.589Z,53.05
2022-09-28T04:34:55.949Z,38.30
2022-09-28T04:37:39.500Z,42.45
2022-09-28T04:40:21.806Z,34.95
2022-09-28T04:43:11.473Z,35.27
2022-09-28T04:46:05.550Z,44.60
2022-09-28T04:49:07.514Z,38.97
2022-09-28T04:51:57.724Z,43.67
2022-09-28T04:54:48.493Z,39.85
2022-09-28T04:57:32.652Z,40.22
2022-09-28T05:00:22.471Z,34.50
2022-09-28T05:03:15.723Z,32.95
2022-09-28T05:06:30.383Z,32.72
2022-09-28T05:09:21.486Z,34.50
2022-09-28T05:12:03.832Z,31.80
2022-09-28T05:14:53.470Z,41.67
2022-09-28T05:17:42.487Z,39.13
2022-09-28T05:20:56.481Z,38.03
2022-09-28T05:23:47.421Z,43.10
2022-09-28T05:26:37.396Z,32.88
2022-09-28T05:29:33.495Z,36.15
2022-09-28T05:32:40.483Z,37.80
2022-09-28T05:35:53.830Z,43.92
2022-09-28T05:38:45.477Z,43.47
2022-09-28T05:41:27.940Z,35.92
2022-09-28T05:44:10.592Z,35.67
2022-09-28T05:47:07.491Z,41.47
2022-09-28T05:49:49.697Z,37.17
2022-09-28T05:52:38.532Z,37.72
2022-09-28T05:55:29.989Z,39.08
2022-09-28T05:58:14.579Z,34.20
2022-09-28T06:00:57.655Z,34.45
2022-09-28T06:03:46.480Z,37.33
2022-09-28T06:06:31.675Z,40.50
2022-09-28T06:09:25.155Z,44.20
2022-09-28T06:12:13.673Z,39.88
2022-09-28T06:15:07.491Z,39.00
2022-09-28T06:17:56.385Z,40.45
2022-09-28T06:20:56.472Z,40.92
2022-09-28T06:23:49.490Z,35.42
2022-09-28T06:26:33.474Z,36.22
2022-09-28T06:29:20.249Z,36.50
2022-09-28T06:32:09.393Z,37.22
2022-09-28T06:34:56.432Z,36.58
2022-09-28T06:37:45.411Z,37.28
2022-09-28T06:40:37.323Z,33.38
2022-09-28T06:43:23.388Z,38.42
2022-09-28T06:46:22.033Z,32.90
2022-09-28T06:49:29.479Z,32.72
2022-09-28T06:52:29.663Z,30.63
2022-09-28T06:55:22.489Z,34.65
2022-09-28T06:58:08.581Z,32.53
2022-09-28T07:00:57.452Z,27.67
2022-09-28T07:03:57.549Z,26.75
2022-09-28T07:07:00.167Z,31.73
2022-09-28T07:10:17.488Z,26.02
2022-09-28T07:13:45.071Z,32.78
2022-09-28T07:16:31.773Z,34.70
2022-09-28T07:19:17.892Z,33.47
2022-09-28T07:22:06.423Z,35.17
2022-09-28T07:24:57.645Z,34.50
2022-09-28T07:27:52.065Z,29.23
2022-09-28T07:30:52.599Z,32.20
2022-09-28T07:33:54.926Z,36.33
2022-09-28T07:36:47.518Z,31.05
2022-09-28T07:39:29.732Z,37.42
2022-09-28T07:42:18.548Z,42.55
2022-09-28T07:45:08.770Z,37.50
2022-09-28T07:48:05.421Z,40.17
2022-09-28T07:51:15.783Z,31.17
2022-09-28T07:54:35.480Z,28.85
2022-09-28T07:57:40.380Z,33.63
2022-09-28T08:00:47.662Z,30.00
2022-09-28T08:03:30.916Z,31.60
2022-09-28T08:06:22.497Z,37.78
2022-09-28T08:09:06.795Z,40.78
2022-09-28T08:12:15.497Z,35.00
2022-09-28T08:15:23.472Z,36.72
2022-09-28T08:18:19.372Z,37.72
2022-09-28T08:21:27.379Z,35.55
2022-09-28T08:24:16.400Z,35.88
2022-09-28T08:27:01.489Z,42.00
2022-09-28T08:29:51.871Z,39.70
2022-09-28T08:32:58.489Z,33.15
2022-09-28T08:36:00.936Z,38.38
2022-09-28T08:39:42.470Z,36.78
2022-09-28T08:43:06.447Z,40.08
2022-09-28T08:46:15.521Z,37.95
2022-09-28T08:49:42.995Z,33.28
2022-09-28T08:52:42.468Z,39.20
2022-09-28T08:56:10.372Z,37.15
2022-09-28T08:59:05.410Z,38.38
2022-09-28T09:02:10.807Z,40.85
2022-09-28T09:04:53.397Z,31.75
2022-09-28T09:08:09.863Z,36.50
2022-09-28T09:11:32.499Z,35.55
2022-09-28T09:14:45.077Z,38.28
2022-09-28T09:17:33.500Z,36.22
2022-09-28T09:20:53.970Z,42.92
2022-09-28T09:24:00.478Z,40.90
2022-09-28T09:26:42.992Z,36.60
2022-09-28T09:29:57.478Z,37.45
2022-09-28T09:33:09.792Z,34.53
2022-09-28T09:36:29.486Z,39.83
2022-09-28T09:40:03.737Z,43.60
2022-09-28T09:43:31.552Z,36.63
2022-09-28T09:47:15.384Z,41.30
2022-09-28T09:50:25.491Z,34.92
2022-09-28T09:53:26.810Z,37.95
2022-09-28T09:56:42.491Z,40.33
2022-09-28T09:59:35.778Z,45.22
2022-09-28T10:02:39.462Z,38.90
2022-09-28T10:05:41.809Z,34.40
2022-09-28T10:08:32.490Z,34.55
2022-09-28T10:11:20.045Z,37.05
2022-09-28T10:14:11.491Z,35.55
2022-09-28T10:17:02.997Z,45.05
2022-09-28T10:20:27.481Z,39.95
2022-09-28T10:23:48.402Z,43.72
2022-09-28T10:26:48.402Z,39.53
2022-09-28T10:29:35.761Z,32.08
2022-09-28T10:32:32.399Z,40.72
2022-09-28T10:35:26.900Z,38.85
2022-09-28T10:38:27.406Z,42.38
2022-09-28T10:41:30.357Z,39.13
2022-09-28T10:44:29.378Z,33.05
2022-09-28T10:47:36.745Z,33.45
2022-09-28T10:50:34.503Z,32.65
2022-09-28T10:53:29.782Z,43.60
2022-09-28T10:56:45.480Z,44.20
2022-09-28T10:59:49.774Z,45.47
2022-09-28T11:02:46.593Z,41.13
2022-09-28T11:05:34.811Z,41.47
2022-09-28T11:08:33.368Z,33.03
2022-09-28T11:11:19.173Z,37.00
2022-09-28T11:14:37.208Z,38.88
2022-09-28T11:17:31.756Z,38.35
2022-09-28T11:20:33.367Z,50.75
2022-09-28T11:23:27.750Z,36.17
2022-09-28T11:26:30.388Z,43.85
2022-09-28T11:29:13.747Z,35.42
2022-09-28T11:32:16.035Z,37.28
2022-09-28T11:35:27.819Z,39.75
2022-09-28T11:38:43.461Z,36.22
2022-09-28T11:42:28.758Z,39.38
2022-09-28T11:45:42.530Z,39.42
2022-09-28T11:48:58.823Z,37.28
2022-09-28T11:51:48.377Z,39.15
2022-09-28T11:54:59.512Z,41.10
2022-09-28T11:57:50.832Z,44.05
2022-09-28T12:00:43.484Z,49.92
2022-09-28T12:03:34.012Z,42.85
2022-09-28T12:06:27.484Z,44.50
2022-09-28T12:09:24.796Z,45.45
2022-09-28T12:12:43.354Z,44.42
2022-09-28T12:15:38.219Z,42.15
2022-09-28T12:18:47.490Z,44.30
2022-09-28T12:21:52.350Z,44.33
2022-09-28T12:24:53.453Z,42.25
2022-09-28T12:27:44.979Z,38.70
2022-09-28T12:30:38.412Z,42.95
2022-09-28T12:33:29.778Z,37.25
2022-09-28T12:36:31.502Z,36.08
2022-09-28T12:39:53.930Z,28.88
2022-09-28T12:43:30.040Z,31.38
2022-09-28T12:46:40.486Z,32.03
2022-09-28T12:53:17.528Z,34.17
2022-09-28T12:56:20.923Z,41.20
2022-09-28T12:59:33.381Z,30.73
2022-09-28T13:02:50.544Z,26.58
2022-09-28T13:06:01.973Z,51.33
2022-09-28T13:09:03.522Z,34.30
2022-09-28T13:12:18.540Z,39.30
2022-09-28T13:15:25.500Z,30.15
2022-09-28T13:18:17.564Z,28.10
2022-09-28T13:21:27.359Z,37.78
2022-09-28T13:24:32.076Z,42.30
2022-09-28T13:27:32.991Z,34.07
2022-09-28T13:30:17.922Z,41.67
2022-09-28T13:33:09.966Z,38.67
2022-09-28T13:35:52.449Z,39.45
2022-09-28T13:38:55.053Z,44.88
2022-09-28T13:41:44.468Z,32.60
2022-09-28T13:44:48.233Z,39.40
2022-09-28T13:47:55.411Z,40.67
2022-09-28T13:51:14.648Z,47.03
2022-09-28T13:54:27.905Z,42.25
2022-09-28T13:57:33.563Z,41.88
2022-09-28T14:00:25.866Z,46.30
2022-09-28T14:03:31.496Z,43.88
2022-09-28T14:06:32.852Z,29.45
2022-09-28T14:09:21.563Z,35.70
2022-09-28T14:12:11.782Z,40.35
2022-09-28T14:15:00.464Z,35.67
2022-09-28T14:17:58.460Z,38.03
2022-09-28T14:21:02.589Z,37.40
2022-09-28T14:24:31.822Z,39.67
2022-09-28T14:27:28.525Z,41.00
2022-09-28T14:30:20.554Z,47.28
2022-09-28T14:33:06.920Z,42.72
2022-09-28T14:36:04.626Z,42.10
2022-09-28T14:39:16.747Z,40.05
2022-09-28T14:42:05.416Z,33.75
2022-09-28T14:45:12.879Z,37.67
2022-09-28T14:48:23.450Z,35.97
2022-09-28T14:51:36.540Z,39.80
2022-09-28T14:54:31.457Z,39.22
2022-09-28T14:57:24.983Z,45.55
2022-09-28T15:00:23.495Z,43.67
2022-09-28T15:03:12.996Z,37.78
2022-09-28T15:06:04.103Z,46.15
2022-09-28T15:08:47.881Z,46.92
2022-09-28T15:11:36.441Z,40.95
2022-09-28T15:14:19.943Z,44.70
2022-09-28T15:17:16.497Z,47.28
2022-09-28T15:20:09.875Z,48.10
2022-09-28T15:23:05.399Z,48.97
2022-09-28T15:25:48.836Z,43.35
2022-09-28T15:28:38.572Z,43.70
2022-09-28T15:31:28.840Z,44.83
2022-09-28T15:34:55.877Z,50.45
2022-09-28T15:37:50.479Z,42.22
2022-09-28T15:40:52.543Z,53.22
2022-09-28T15:43:38.202Z,49.13
2022-09-28T15:46:36.593Z,52.15
2022-09-28T15:49:51.474Z,48.60
2022-09-28T15:52:54.066Z,49.00
2022-09-28T15:55:52.406Z,47.20
2022-09-28T15:58:42.532Z,57.25
2022-09-28T16:01:40.796Z,57.05
2022-09-28T16:04:48.466Z,59.55
2022-09-28T16:07:40.060Z,50.47
2022-09-28T16:10:30.495Z,62.55
2022-09-28T16:13:31.426Z,46.80
2022-09-28T16:16:26.585Z,55.97
2022-09-28T16:19:10.277Z,58.10
2022-09-28T16:22:06.242Z,52.08
2022-09-28T16:24:48.954Z,59.95
2022-09-28T16:27:52.518Z,67.43
2022-09-28T16:30:43.034Z,63.75
2022-09-28T16:33:39.095Z,59.35
2022-09-28T16:36:28.099Z,58.40
2022-09-28T16:39:20.671Z,60.08
2022-09-28T16:42:09.830Z,65.15
2022-09-28T16:44:58.512Z,59.00
2022-09-28T16:47:48.505Z,64.75
2022-09-28T16:50:44.441Z,56.65
2022-09-28T16:53:52.563Z,63.55
2022-09-28T16:56:36.377Z,62.60
2022-09-28T16:59:25.547Z,54.13
2022-09-28T17:02:08.920Z,56.03
2022-09-28T17:04:57.583Z,53.28
2022-09-28T17:07:46.407Z,57.92
2022-09-28T17:11:13.821Z,62.53
2022-09-28T17:14:06.541Z,59.63
2022-09-28T17:17:13.785Z,66.80
2022-09-28T17:19:56.524Z,60.20
2022-09-28T17:22:38.921Z,60.95
2022-09-28T17:25:27.597Z,61.67
2022-09-28T17:28:27.052Z,57.42
2022-09-28T17:31:09.516Z,58.22
2022-09-28T17:34:23.129Z,58.50
2022-09-28T17:37:06.509Z,63.17
2022-09-28T17:39:49.076Z,66.45
2022-09-28T17:42:43.891Z,74.68
2022-09-28T17:45:29.607Z,67.47
2022-09-28T17:48:19.694Z,72.97
2022-09-28T17:51:16.532Z,78.65
2022-09-28T17:54:08.797Z,69.90
2022-09-28T17:56:51.058Z,73.63
2022-09-28T17:59:40.634Z,70.45
2022-09-28T18:02:29.478Z,76.25
2022-09-28T18:05:21.466Z,71.20
2022-09-28T18:08:12.493Z,65.22
2022-09-28T18:10:55.734Z,65.82
2022-09-28T18:16:35.461Z,72.63
2022-09-28T18:19:17.914Z,76.35
2022-09-28T18:22:06.451Z,75.65
2022-09-28T18:24:57.480Z,79.47
2022-09-28T18:27:39.699Z,85.30
2022-09-28T18:30:28.480Z,73.40
2022-09-28T18:33:18.456Z,79.68
2022-09-28T18:36:09.455Z,82.00
2022-09-28T18:38:58.494Z,86.45
2022-09-28T18:41:40.822Z,85.25
2022-09-28T18:44:29.479Z,88.93
2022-09-28T18:47:14.649Z,88.57
2022-09-28T18:50:05.514Z,71.28
2022-09-28T18:52:55.398Z,74.65
2022-09-28T18:55:40.305Z,83.57
2022-09-28T18:58:29.454Z,83.93
2022-09-28T19:01:30.438Z,87.90
2022-09-28T19:04:16.909Z,82.45
2022-09-28T19:07:06.378Z,79.00
2022-09-28T19:09:48.904Z,86.47
2022-09-28T19:12:37.479Z,79.55
2022-09-28T19:15:20.655Z,73.15
2022-09-28T19:18:09.442Z,68.05
2022-09-28T19:20:51.894Z,75.63
2022-09-28T19:23:42.371Z,75.68
2022-09-28T19:26:34.719Z,76.53
2022-09-28T19:29:27.466Z,71.45
2022-09-28T19:32:19.343Z,67.85
2022-09-28T19:35:09.416Z,68.35
2022-09-28T19:37:54.457Z,74.10
2022-09-28T19:40:45.640Z,89.55
2022-09-28T19:43:27.901Z,94.97
2022-09-28T19:46:16.472Z,100.18
2022-09-28T19:49:05.369Z,91.95
2022-09-28T19:52:13.916Z,85.57
2022-09-28T19:55:05.450Z,80.55
2022-09-28T19:57:49.072Z,82.88
2022-09-28T20:00:37.429Z,85.25
2022-09-28T20:03:29.357Z,79.53
2022-09-28T20:06:18.324Z,79.40
2022-09-28T20:09:07.836Z,85.65
2022-09-28T20:11:50.343Z,72.60
2022-09-28T20:14:37.976Z,83.45
2022-09-28T20:17:29.334Z,82.90
2022-09-28T20:20:26.354Z,76.82
2022-09-28T20:23:15.781Z,73.40
2022-09-28T20:26:00.444Z,76.13
2022-09-28T20:28:43.966Z,73.10
2022-09-28T20:31:36.448Z,67.75
2022-09-28T20:34:18.749Z,76.88
2022-09-28T20:37:07.424Z,80.95
2022-09-28T20:39:49.937Z,73.80
2022-09-28T20:42:39.421Z,68.95
2022-09-28T20:45:21.761Z,68.32
2022-09-28T20:48:14.351Z,63.72
2022-09-28T20:51:19.463Z,63.78
2022-09-28T20:54:08.331Z,63.45
2022-09-28T20:56:59.435Z,61.95
2022-09-28T20:59:54.489Z,70.80
2022-09-28T21:02:38.456Z,80.53
2022-09-28T21:05:27.409Z,67.43
2022-09-28T21:08:09.803Z,71.82
2022-09-28T21:11:01.443Z,67.82
2022-09-28T21:13:44.006Z,65.80
2022-09-28T21:16:34.435Z,66.68
2022-09-28T21:19:16.705Z,75.55
2022-09-28T21:22:05.445Z,67.30
2022-09-28T21:24:54.412Z,68.65
2022-09-28T21:27:43.444Z,70.15
2022-09-28T21:30:32.427Z,63.78
2022-09-28T21:33:14.714Z,76.32
2022-09-28T21:36:03.452Z,72.80
2022-09-28T21:38:47.224Z,73.82
2022-09-28T21:41:37.287Z,71.05
2022-09-28T21:44:26.773Z,79.72
2022-09-28T21:47:08.450Z,72.32
2022-09-28T21:50:03.292Z,90.25
2022-09-28T21:52:54.342Z,71.53
2022-09-28T21:55:36.726Z,75.18
2022-09-28T21:58:25.436Z,77.57
2022-09-28T22:01:09.792Z,90.32
2022-09-28T22:04:00.334Z,88.50
2022-09-28T22:06:50.862Z,78.43
2022-09-28T22:09:39.734Z,85.53
2022-09-28T22:12:22.483Z,81.10
2022-09-28T22:15:06.314Z,85.35
2022-09-28T22:17:55.443Z,88.57
2022-09-28T22:20:37.683Z,86.40
2022-09-28T22:23:26.345Z,87.80
2022-09-28T22:26:19.459Z,82.50
2022-09-28T22:29:06.889Z,81.85
2022-09-28T22:31:55.557Z,80.72
2022-09-28T22:34:38.864Z,77.53
2022-09-28T22:37:27.336Z,82.15
2022-09-28T22:40:12.226Z,81.18
2022-09-28T22:43:02.433Z,84.85
2022-09-28T22:45:44.790Z,87.57
2022-09-28T22:48:33.446Z,81.32
2022-09-28T22:51:29.354Z,82.00
2022-09-28T22:54:24.441Z,81.82
2022-09-28T22:57:06.745Z,87.72
2022-09-28T22:59:55.434Z,77.10
2022-09-28T23:02:44.468Z,75.47
2022-09-28T23:05:26.645Z,73.00
2022-09-28T23:08:15.430Z,73.43
2022-09-28T23:10:57.665Z,73.18
2022-09-28T23:13:47.351Z,77.63
2022-09-28T23:16:37.417Z,78.20
2022-09-28T23:19:19.799Z,78.80
2022-09-28T23:22:08.503Z,80.32
2022-09-28T23:24:50.736Z,78.53
2022-09-28T23:27:39.619Z,73.40
2022-09-28T23:30:24.295Z,86.88
2022-09-28T23:33:13.340Z,74.07
2022-09-28T23:36:02.346Z,79.03
2022-09-28T23:38:51.732Z,82.75
2022-09-28T23:41:34.438Z,82.45
2022-09-28T23:44:16.610Z,81.45
2022-09-28T23:47:05.452Z,85.32
2022-09-28T23:50:00.303Z,81.47
2022-09-28T23:52:49.343Z,83.40
2022-09-28T23:55:31.699Z,86.47
2022-09-28T23:58:20.446Z,88.70
